Time;durP1;ratioP1;P1;durP2;ratioP2;P2;SDS_P1;SDS_P2;PMS_P1;PMS_P2;Temp;Humidity;BMP_temperature;BMP_pressure;BME280_temperature;BME280_humidity;BME280_pressure;Samples;Min_cycle;Max_cycle;Signal;HPM_P1;HPM_P2
2021/04/09 00:02:20;;;;;;;;;;;19.70;56.70;;;;;;5036881;28;1372;-69
2021/04/09 00:04:45;;;;;;;;;;;19.70;56.70;;;;;;5054785;28;1945;-68
2021/04/09 00:07:10;;;;;;;;;;;19.70;56.70;;;;;;5054356;28;1239;-68
2021/04/09 00:09:36;;;;;;;;;;;19.70;56.70;;;;;;5054736;28;1333;-68
2021/04/09 00:12:01;;;;;;;;;;;19.70;56.70;;;;;;5037028;28;1077;-68
2021/04/09 00:14:27;;;;;;;;;;;19.70;56.70;;;;;;5054607;28;1208;-68
2021/04/09 00:16:52;;;;;;;;;;;19.70;56.70;;;;;;5054431;28;1251;-69
2021/04/09 00:19:18;;;;;;;;;;;19.70;56.70;;;;;;5054143;28;1316;-68
2021/04/09 00:21:44;;;;;;;;;;;19.70;56.70;;;;;;5036556;28;1315;-68
2021/04/09 00:24:09;;;;;;;;;;;19.70;56.70;;;;;;5054499;28;1281;-67
2021/04/09 00:26:35;;;;;;;;;;;19.70;56.70;;;;;;5016432;28;1908;-66
2021/04/09 00:29:00;;;;;;;;;;;19.70;56.70;;;;;;5034402;28;1093;-67
2021/04/09 00:31:26;;;;;;;;;;;19.70;56.70;;;;;;5054330;28;1667;-66
2021/04/09 00:33:51;;;;;;;;;;;19.70;56.70;;;;;;5036399;28;1270;-67
2021/04/09 00:36:17;;;;;;;;;;;19.70;56.70;;;;;;5054036;28;1339;-66
2021/04/09 00:38:43;;;;;;;;;;;19.70;56.80;;;;;;5053935;28;1251;-66
2021/04/09 00:41:08;;;;;;;;;;;19.70;56.80;;;;;;5054193;28;1332;-66
2021/04/09 00:43:34;;;;;;;;;;;19.60;56.70;;;;;;5054179;28;1270;-66
2021/04/09 00:45:59;;;;;;;;;;;19.70;56.80;;;;;;5053765;28;1913;-66
2021/04/09 00:48:25;;;;;;;;;;;19.70;56.80;;;;;;5053694;28;1355;-69
2021/04/09 00:50:50;;;;;;;;;;;19.60;56.70;;;;;;5053576;28;1077;-67
2021/04/09 00:53:15;;;;;;;;;;;19.70;56.80;;;;;;5053290;28;1284;-68
2021/04/09 00:55:41;;;;;;;;;;;19.60;56.70;;;;;;5053843;28;1116;-69
2021/04/09 00:58:07;;;;;;;;;;;19.70;56.80;;;;;;5035743;28;1545;-69
2021/04/09 01:00:32;;;;;;;;;;;19.60;56.80;;;;;;5035794;28;1077;-68
2021/04/09 01:02:58;;;;;;;;;;;19.70;56.80;;;;;;5053778;28;1250;-68
2021/04/09 01:05:23;;;;;;;;;;;19.70;56.80;;;;;;5035475;28;1903;-68
2021/04/09 01:07:49;;;;;;;;;;;19.60;56.80;;;;;;5053304;28;1220;-68
2021/04/09 01:10:15;;;;;;;;;;;19.60;56.80;;;;;;5053586;28;1269;-69
2021/04/09 01:12:40;;;;;;;;;;;19.60;56.80;;;;;;5053656;28;1276;-68
2021/04/09 01:15:06;;;;;;;;;;;19.60;56.80;;;;;;5053544;28;950;-68
2021/04/09 01:17:31;;;;;;;;;;;19.60;56.80;;;;;;5035238;28;1279;-68
2021/04/09 01:20:04;;;;;;;;;;;19.60;56.80;;;;;;5053200;28;1254;-67
2021/04/09 01:23:02;;;;;;;;;;;19.60;56.80;;;;;;5035651;28;1347;-68
2021/04/09 01:25:33;;;;;;;;;;;19.60;57.10;;;;;;5021105;28;1910;-68
2021/04/09 01:28:09;;;;;;;;;;;19.60;56.80;;;;;;5049412;28;1249;-67
2021/04/09 01:31:04;;;;;;;;;;;19.60;56.90;;;;;;5035334;28;1447;-66
2021/04/09 01:33:37;;;;;;;;;;;19.60;56.80;;;;;;5026512;28;1699;-67
2021/04/09 01:36:08;;;;;;;;;;;19.60;56.80;;;;;;5035328;28;1270;-67
2021/04/09 01:38:33;;;;;;;;;;;19.60;56.90;;;;;;5034768;28;1294;-66
2021/04/09 01:40:59;;;;;;;;;;;19.60;56.90;;;;;;5035201;28;1461;-66
2021/04/09 01:43:24;;;;;;;;;;;19.60;56.80;;;;;;5035305;28;939;-66
2021/04/09 01:45:50;;;;;;;;;;;19.60;56.80;;;;;;5035257;28;1914;-67
2021/04/09 01:48:15;;;;;;;;;;;19.60;56.80;;;;;;5053849;28;1231;-67
2021/04/09 01:50:41;;;;;;;;;;;19.60;56.80;;;;;;5035981;28;1103;-66
2021/04/09 01:53:06;;;;;;;;;;;19.60;56.70;;;;;;5015955;28;1077;-67
2021/04/09 01:55:32;;;;;;;;;;;19.60;56.70;;;;;;5026143;28;1358;-66
2021/04/09 01:57:58;;;;;;;;;;;19.70;56.70;;;;;;5041780;28;1714;-66
2021/04/09 02:00:24;;;;;;;;;;;19.60;56.70;;;;;;5044948;28;1114;-66
2021/04/09 02:02:49;;;;;;;;;;;19.70;56.70;;;;;;5044912;28;1236;-67
2021/04/09 02:05:16;;;;;;;;;;;19.70;56.70;;;;;;5043500;28;1964;-68
2021/04/09 02:07:41;;;;;;;;;;;19.70;56.60;;;;;;5042045;28;1275;-67
2021/04/09 02:10:07;;;;;;;;;;;19.70;56.60;;;;;;5045336;28;1291;-67
2021/04/09 02:12:32;;;;;;;;;;;19.70;56.60;;;;;;5040993;28;1330;-66
2021/04/09 02:14:58;;;;;;;;;;;19.70;56.60;;;;;;5039399;28;1425;-67
2021/04/09 02:17:23;;;;;;;;;;;19.70;56.50;;;;;;5044921;28;1351;-68
2021/04/09 02:19:49;;;;;;;;;;;19.70;56.50;;;;;;5025969;28;1288;-68
2021/04/09 02:22:14;;;;;;;;;;;19.70;56.50;;;;;;5041526;28;1228;-67
2021/04/09 02:24:39;;;;;;;;;;;19.70;56.50;;;;;;5039523;28;1894;-66
2021/04/09 02:27:05;;;;;;;;;;;19.70;56.50;;;;;;5046049;28;1327;-69
2021/04/09 02:29:33;;;;;;;;;;;19.70;56.50;;;;;;5045039;28;1300;-68
2021/04/09 02:31:59;;;;;;;;;;;19.70;56.50;;;;;;5045451;28;1295;-69
2021/04/09 02:34:25;;;;;;;;;;;19.70;56.50;;;;;;5041642;28;1292;-69
2021/04/09 02:36:51;;;;;;;;;;;19.70;56.40;;;;;;5044169;28;1314;-68
2021/04/09 02:39:18;;;;;;;;;;;19.70;56.40;;;;;;5038480;28;1311;-68
2021/04/09 02:41:46;;;;;;;;;;;19.80;56.40;;;;;;5043595;28;1327;-68
2021/04/09 02:44:11;;;;;;;;;;;19.90;56.30;;;;;;5027344;28;1236;-68
2021/04/09 02:46:40;;;;;;;;;;;20.00;56.10;;;;;;5044039;28;1898;-69
2021/04/09 02:49:17;;;;;;;;;;;20.10;55.90;;;;;;5043958;28;1206;-68
2021/04/09 02:51:42;;;;;;;;;;;20.20;55.70;;;;;;5039505;28;1200;-68
2021/04/09 02:54:13;;;;;;;;;;;20.30;55.40;;;;;;5028938;28;1081;-69
2021/04/09 02:56:39;;;;;;;;;;;20.50;55.20;;;;;;5038573;28;1335;-69
2021/04/09 02:59:06;;;;;;;;;;;20.60;54.90;;;;;;5031053;28;1679;-68
2021/04/09 03:01:32;;;;;;;;;;;20.70;54.70;;;;;;5044371;28;1228;-68
2021/04/09 03:03:57;;;;;;;;;;;20.80;54.50;;;;;;5039132;28;1347;-70
2021/04/09 03:06:23;;;;;;;;;;;20.90;54.30;;;;;;5025703;28;1965;-69
2021/04/09 03:08:48;;;;;;;;;;;21.00;54.10;;;;;;5045397;28;1103;-69
2021/04/09 03:11:14;;;;;;;;;;;21.00;53.90;;;;;;5043337;28;1169;-69
2021/04/09 03:13:39;;;;;;;;;;;21.10;53.70;;;;;;5043989;28;1287;-68
2021/04/09 03:16:05;;;;;;;;;;;21.20;53.60;;;;;;5028085;28;1300;-68
2021/04/09 03:18:33;;;;;;;;;;;21.20;53.40;;;;;;5049181;28;1351;-68
2021/04/09 03:20:58;;;;;;;;;;;21.30;53.30;;;;;;5029570;28;1217;-68
2021/04/09 03:23:24;;;;;;;;;;;21.30;53.20;;;;;;5049969;28;1292;-67
2021/04/09 03:25:49;;;;;;;;;;;21.40;53.20;;;;;;5047191;28;1898;-68
2021/04/09 03:28:15;;;;;;;;;;;21.40;53.10;;;;;;5050929;28;1343;-69
2021/04/09 03:30:40;;;;;;;;;;;21.40;53.00;;;;;;5048626;28;1268;-69
2021/04/09 03:33:06;;;;;;;;;;;21.40;52.90;;;;;;5041261;28;1233;-70
2021/04/09 03:35:31;;;;;;;;;;;21.50;52.90;;;;;;5047108;28;1307;-69
2021/04/09 03:37:57;;;;;;;;;;;21.50;52.90;;;;;;5048713;28;1416;-69
2021/04/09 03:40:22;;;;;;;;;;;21.50;52.90;;;;;;5047919;28;1345;-70
2021/04/09 03:42:47;;;;;;;;;;;21.50;52.90;;;;;;5049557;28;1298;-69
2021/04/09 03:45:13;;;;;;;;;;;21.50;52.90;;;;;;5048878;28;1902;-70
2021/04/09 03:47:38;;;;;;;;;;;21.50;52.90;;;;;;5041388;28;1579;-69
2021/04/09 03:50:05;;;;;;;;;;;21.50;52.90;;;;;;5049629;28;1161;-69
2021/04/09 03:52:30;;;;;;;;;;;21.50;52.90;;;;;;5041971;28;1303;-70
2021/04/09 03:54:55;;;;;;;;;;;21.50;52.90;;;;;;5046701;28;1245;-70
2021/04/09 03:57:21;;;;;;;;;;;21.50;52.90;;;;;;5048793;28;1282;-68
2021/04/09 03:59:46;;;;;;;;;;;21.50;53.00;;;;;;5028696;28;1294;-69
2021/04/09 04:02:12;;;;;;;;;;;21.50;53.00;;;;;;5030159;28;1452;-69
2021/04/09 04:04:37;;;;;;;;;;;21.40;53.00;;;;;;5047073;28;1969;-69
2021/04/09 04:07:02;;;;;;;;;;;21.40;53.10;;;;;;5048401;28;1370;-69
2021/04/09 04:09:28;;;;;;;;;;;21.40;53.10;;;;;;5048878;28;1236;-70
2021/04/09 04:11:53;;;;;;;;;;;21.40;53.20;;;;;;5051697;28;1425;-70
2021/04/09 04:14:19;;;;;;;;;;;21.40;53.20;;;;;;5047575;28;1273;-69
2021/04/09 04:16:44;;;;;;;;;;;21.40;53.20;;;;;;5048956;28;1320;-69
2021/04/09 04:19:10;;;;;;;;;;;21.40;53.30;;;;;;5045588;28;1239;-70
2021/04/09 04:21:35;;;;;;;;;;;21.40;53.30;;;;;;5048191;28;1287;-68
2021/04/09 04:24:01;;;;;;;;;;;21.40;53.40;;;;;;5047081;28;1228;-69
2021/04/09 04:26:26;;;;;;;;;;;21.30;53.40;;;;;;5045467;28;1894;-69
2021/04/09 04:28:52;;;;;;;;;;;21.30;53.40;;;;;;5043221;28;1236;-68
2021/04/09 04:31:17;;;;;;;;;;;21.30;53.50;;;;;;5048101;28;1173;-69
2021/04/09 04:33:42;;;;;;;;;;;21.30;53.50;;;;;;5046383;28;1117;-69
2021/04/09 04:36:08;;;;;;;;;;;21.30;53.60;;;;;;5028712;28;1270;-69
2021/04/09 04:38:34;;;;;;;;;;;21.20;53.60;;;;;;5054983;28;1279;-70
2021/04/09 04:40:59;;;;;;;;;;;21.20;53.70;;;;;;5055093;28;1304;-69
2021/04/09 04:43:25;;;;;;;;;;;21.20;53.70;;;;;;5037463;28;1288;-69
2021/04/09 04:45:50;;;;;;;;;;;21.20;53.80;;;;;;5054941;28;1906;-68
2021/04/09 04:48:16;;;;;;;;;;;21.10;54.40;;;;;;5054615;28;1373;-69
2021/04/09 04:50:41;;;;;;;;;;;21.10;53.80;;;;;;5054876;28;1323;-69
2021/04/09 04:53:06;;;;;;;;;;;21.10;53.90;;;;;;5054885;28;1271;-69
2021/04/09 04:55:32;;;;;;;;;;;21.10;53.90;;;;;;5054893;28;1320;-69
2021/04/09 04:57:58;;;;;;;;;;;21.10;54.00;;;;;;5054574;28;1395;-69
2021/04/09 05:00:23;;;;;;;;;;;21.10;54.00;;;;;;5036751;28;1078;-68
2021/04/09 05:02:49;;;;;;;;;;;21.00;54.00;;;;;;5054926;28;1024;-70
2021/04/09 05:05:14;;;;;;;;;;;21.00;54.00;;;;;;5054565;28;1898;-69
2021/04/09 05:07:39;;;;;;;;;;;21.00;54.10;;;;;;5054266;28;1253;-68
2021/04/09 05:10:05;;;;;;;;;;;21.00;54.10;;;;;;5036198;28;2005;-69
2021/04/09 05:12:31;;;;;;;;;;;21.00;54.10;;;;;;5044663;28;1243;-72
2021/04/09 05:14:56;;;;;;;;;;;20.90;54.10;;;;;;5051468;28;1214;-71
2021/04/09 05:17:22;;;;;;;;;;;21.00;54.20;;;;;;5049549;28;1318;-68
2021/04/09 05:19:47;;;;;;;;;;;21.00;54.20;;;;;;5053371;28;1344;-69
2021/04/09 05:22:12;;;;;;;;;;;21.00;54.30;;;;;;5036410;28;1302;-69
2021/04/09 05:24:38;;;;;;;;;;;21.00;54.30;;;;;;5036457;28;1918;-69
2021/04/09 05:27:03;;;;;;;;;;;20.90;54.20;;;;;;5052449;28;1326;-69
2021/04/09 05:29:29;;;;;;;;;;;20.90;54.20;;;;;;5054272;28;1125;-69
2021/04/09 05:31:54;;;;;;;;;;;21.00;54.30;;;;;;5053436;28;859;-68
2021/04/09 05:34:20;;;;;;;;;;;20.90;54.20;;;;;;5036168;28;1352;-68
2021/04/09 05:36:45;;;;;;;;;;;20.90;54.20;;;;;;5054119;28;1267;-68
2021/04/09 05:39:11;;;;;;;;;;;20.90;54.20;;;;;;5053286;28;1282;-68
2021/04/09 05:41:36;;;;;;;;;;;20.90;54.20;;;;;;5054041;28;1061;-68
2021/04/09 05:44:02;;;;;;;;;;;20.90;54.20;;;;;;5054189;28;1277;-68
2021/04/09 05:46:27;;;;;;;;;;;20.90;54.30;;;;;;5035976;28;1968;-69
2021/04/09 05:48:52;;;;;;;;;;;20.90;54.30;;;;;;5053599;28;1276;-68
2021/04/09 05:51:18;;;;;;;;;;;20.90;54.30;;;;;;5053020;28;1029;-68
2021/04/09 05:53:43;;;;;;;;;;;20.90;54.30;;;;;;5053917;28;1329;-68
2021/04/09 05:56:09;;;;;;;;;;;20.90;54.40;;;;;;5053469;28;1307;-68
2021/04/09 05:58:36;;;;;;;;;;;20.90;54.40;;;;;;5053460;28;1304;-67
2021/04/09 06:01:01;;;;;;;;;;;20.90;54.40;;;;;;5051334;28;1171;-67
2021/04/09 06:03:26;;;;;;;;;;;20.90;54.50;;;;;;5035755;28;1271;-68
2021/04/09 06:05:52;;;;;;;;;;;20.80;54.50;;;;;;5052913;28;1898;-67
2021/04/09 06:08:17;;;;;;;;;;;20.80;54.50;;;;;;5053314;28;1389;-67
2021/04/09 06:10:43;;;;;;;;;;;20.80;54.60;;;;;;5053426;28;1336;-67
2021/04/09 06:13:08;;;;;;;;;;;20.80;54.60;;;;;;5053268;28;1271;-69
2021/04/09 06:15:34;;;;;;;;;;;20.80;54.60;;;;;;5052934;28;1297;-69
2021/04/09 06:17:59;;;;;;;;;;;20.80;54.60;;;;;;5052689;28;1433;-68
2021/04/09 06:20:24;;;;;;;;;;;20.80;54.60;;;;;;5053296;28;1400;-67
2021/04/09 06:22:50;;;;;;;;;;;20.80;54.70;;;;;;5034882;28;1112;-67
2021/04/09 06:25:16;;;;;;;;;;;20.80;54.70;;;;;;5047983;28;1965;-67
2021/04/09 06:27:41;;;;;;;;;;;20.70;54.70;;;;;;5052532;28;1351;-67
2021/04/09 06:30:07;;;;;;;;;;;20.70;54.70;;;;;;5053128;28;1332;-67
2021/04/09 06:32:32;;;;;;;;;;;20.70;55.30;;;;;;5052748;28;1252;-66
2021/04/09 06:34:58;;;;;;;;;;;20.70;54.80;;;;;;5053199;28;1289;-66
2021/04/09 06:37:23;;;;;;;;;;;20.70;54.80;;;;;;5052634;28;1283;-66
2021/04/09 06:39:49;;;;;;;;;;;20.70;54.90;;;;;;5052742;28;1293;-67
2021/04/09 06:42:15;;;;;;;;;;;20.70;54.90;;;;;;5048690;28;1384;-67
2021/04/09 06:44:40;;;;;;;;;;;20.70;54.90;;;;;;5051872;28;1906;-66
2021/04/09 06:47:06;;;;;;;;;;;20.60;54.90;;;;;;5052227;28;1479;-67
2021/04/09 06:49:31;;;;;;;;;;;20.60;54.90;;;;;;5034127;28;1273;-67
2021/04/09 06:51:56;;;;;;;;;;;20.60;54.90;;;;;;5052844;28;1335;-67
2021/04/09 06:54:23;;;;;;;;;;;20.60;54.90;;;;;;5034837;28;1315;-69
2021/04/09 06:56:48;;;;;;;;;;;20.60;55.00;;;;;;5044063;28;2156;-71
2021/04/09 06:59:15;;;;;;;;;;;20.60;55.00;;;;;;5022832;28;1616;-70
2021/04/09 07:01:41;;;;;;;;;;;20.60;55.00;;;;;;5046035;28;1295;-70
2021/04/09 07:04:07;;;;;;;;;;;20.60;55.00;;;;;;5039482;28;1226;-70
2021/04/09 07:06:33;;;;;;;;;;;20.60;55.10;;;;;;5040569;28;1961;-70
2021/04/09 07:08:58;;;;;;;;;;;20.50;55.10;;;;;;5034499;28;1414;-70
2021/04/09 07:11:23;;;;;;;;;;;20.50;55.00;;;;;;5052572;28;1291;-70
2021/04/09 07:13:49;;;;;;;;;;;20.50;55.10;;;;;;5052564;28;1407;-71
2021/04/09 07:16:15;;;;;;;;;;;20.50;55.10;;;;;;5034517;28;1269;-71
2021/04/09 07:18:47;;;;;;;;;;;20.50;55.10;;;;;;5034387;28;1211;-70
2021/04/09 07:21:22;;;;;;;;;;;20.50;55.20;;;;;;5052525;28;1328;-70
2021/04/09 07:23:48;;;;;;;;;;;20.50;55.20;;;;;;5034754;28;1030;-71
2021/04/09 07:26:32;;;;;;;;;;;20.50;55.20;;;;;;5034064;28;1922;-71
2021/04/09 07:28:58;;;;;;;;;;;20.50;55.40;;;;;;5050158;28;1956;-70
2021/04/09 07:31:27;;;;;;;;;;;20.50;55.20;;;;;;5034192;28;1049;-69
2021/04/09 07:33:52;;;;;;;;;;;20.40;55.20;;;;;;5052231;28;1357;-69
2021/04/09 07:36:18;;;;;;;;;;;20.40;55.30;;;;;;5052284;28;1314;-70
2021/04/09 07:38:43;;;;;;;;;;;20.50;55.30;;;;;;5034273;28;1280;-69
2021/04/09 07:41:09;;;;;;;;;;;20.40;55.30;;;;;;5034047;28;1522;-69
2021/04/09 07:43:35;;;;;;;;;;;20.40;55.30;;;;;;5034858;28;1077;-69
2021/04/09 07:46:02;;;;;;;;;;;20.40;55.40;;;;;;5034181;28;1914;-69
2021/04/09 07:48:28;;;;;;;;;;;20.40;55.40;;;;;;5052087;28;1277;-69
2021/04/09 07:50:54;;;;;;;;;;;20.40;55.40;;;;;;5034266;28;1297;-69
2021/04/09 07:53:20;;;;;;;;;;;20.40;55.40;;;;;;5034581;28;1281;-69
2021/04/09 07:55:45;;;;;;;;;;;20.40;55.50;;;;;;5033923;28;1353;-70
2021/04/09 07:58:11;;;;;;;;;;;20.40;55.50;;;;;;5034117;28;1334;-70
2021/04/09 08:00:37;;;;;;;;;;;20.40;55.50;;;;;;5052470;28;1328;-69
2021/04/09 08:03:02;;;;;;;;;;;20.40;55.50;;;;;;5055946;28;1066;-70
2021/04/09 08:05:28;;;;;;;;;;;20.40;55.50;;;;;;5037823;28;1906;-69
2021/04/09 08:07:53;;;;;;;;;;;20.40;55.60;;;;;;5055353;28;1282;-69
2021/04/09 08:10:25;;;;;;;;;;;20.30;55.50;;;;;;5055322;28;1476;-70
2021/04/09 08:12:51;;;;;;;;;;;20.40;55.60;;;;;;5038126;28;1273;-69
2021/04/09 08:15:18;;;;;;;;;;;20.30;55.60;;;;;;5017994;28;1207;-69
2021/04/09 08:17:44;;;;;;;;;;;20.30;55.60;;;;;;5029291;28;1368;-69
2021/04/09 08:20:10;;;;;;;;;;;20.30;55.60;;;;;;5037620;28;1556;-68
2021/04/09 08:22:36;;;;;;;;;;;20.30;55.60;;;;;;5037652;28;1391;-69
2021/04/09 08:25:02;;;;;;;;;;;20.30;55.60;;;;;;5037207;28;1902;-69
2021/04/09 08:27:27;;;;;;;;;;;20.30;55.70;;;;;;5055340;28;1327;-67
2021/04/09 08:29:52;;;;;;;;;;;20.30;55.70;;;;;;5037323;28;1341;-67
2021/04/09 08:32:18;;;;;;;;;;;20.20;55.70;;;;;;5055235;28;1320;-67
2021/04/09 08:34:43;;;;;;;;;;;20.20;55.70;;;;;;5037374;28;1167;-67
2021/04/09 08:37:09;;;;;;;;;;;20.20;55.70;;;;;;5037163;28;1616;-68
2021/04/09 08:39:34;;;;;;;;;;;20.20;55.80;;;;;;5037320;28;1426;-68
2021/04/09 08:42:00;;;;;;;;;;;20.20;55.70;;;;;;5037634;28;1648;-67
2021/04/09 08:44:26;;;;;;;;;;;20.20;55.80;;;;;;5037369;28;1599;-67
2021/04/09 08:46:51;;;;;;;;;;;20.20;55.80;;;;;;5055111;28;1915;-70
2021/04/09 08:49:17;;;;;;;;;;;20.20;55.80;;;;;;5054915;28;1666;-68
2021/04/09 08:51:42;;;;;;;;;;;20.20;55.80;;;;;;5055178;28;1675;-70
2021/04/09 08:54:23;;;;;;;;;;;20.20;55.90;;;;;;5037031;28;1393;-70
2021/04/09 08:56:49;;;;;;;;;;;20.20;55.90;;;;;;5054731;28;1365;-70
2021/04/09 08:59:14;;;;;;;;;;;20.20;55.90;;;;;;5053673;28;1343;-70
2021/04/09 09:01:40;;;;;;;;;;;20.20;55.90;;;;;;5036334;28;1339;-69
2021/04/09 09:04:25;;;;;;;;;;;20.20;56.00;;;;;;5054478;28;1333;-68
2021/04/09 09:06:50;;;;;;;;;;;20.20;56.00;;;;;;5053993;28;1949;-68
2021/04/09 09:09:29;;;;;;;;;;;20.20;56.00;;;;;;5036561;28;1332;-69
2021/04/09 09:11:55;;;;;;;;;;;20.20;56.00;;;;;;5036676;28;1328;-69
2021/04/09 09:14:32;;;;;;;;;;;20.10;55.90;;;;;;5053869;28;1056;-69
2021/04/09 09:16:58;;;;;;;;;;;20.10;56.00;;;;;;5054339;28;1339;-68
2021/04/09 09:19:39;;;;;;;;;;;20.10;56.00;;;;;;5036346;28;1274;-69
2021/04/09 09:22:11;;;;;;;;;;;20.10;56.00;;;;;;5054492;28;1274;-69
2021/04/09 09:24:41;;;;;;;;;;;20.10;56.00;;;;;;5054425;28;1336;-69
2021/04/09 09:27:10;;;;;;;;;;;20.10;56.00;;;;;;5035885;28;1352;-69
2021/04/09 09:29:37;;;;;;;;;;;20.10;56.10;;;;;;5053783;28;1275;-69
2021/04/09 09:32:09;;;;;;;;;;;20.10;56.10;;;;;;5028098;28;1280;-69
2021/04/09 09:34:36;;;;;;;;;;;20.10;56.10;;;;;;5041668;28;1224;-69
2021/04/09 09:37:17;;;;;;;;;;;20.10;56.20;;;;;;5029506;28;1386;-69
2021/04/09 09:39:57;;;;;;;;;;;20.10;56.10;;;;;;5038850;28;1291;-68
2021/04/09 09:42:26;;;;;;;;;;;20.10;56.10;;;;;;5045161;28;1481;-66
2021/04/09 09:44:52;;;;;;;;;;;20.10;56.10;;;;;;5025947;28;1902;-66
2021/04/09 09:47:17;;;;;;;;;;;20.10;56.10;;;;;;5029257;28;1308;-66
2021/04/09 09:50:07;;;;;;;;;;;20.10;56.20;;;;;;5049853;28;1272;-66
2021/04/09 09:52:51;;;;;;;;;;;20.10;56.10;;;;;;5044275;28;1261;-66
2021/04/09 09:55:32;;;;;;;;;;;20.10;56.10;;;;;;5045512;28;1225;-67
2021/04/09 09:58:02;;;;;;;;;;;20.10;56.10;;;;;;5045498;28;1288;-65
2021/04/09 10:00:31;;;;;;;;;;;20.10;56.10;;;;;;5046884;28;1561;-69
2021/04/09 10:03:15;;;;;;;;;;;20.10;56.10;;;;;;5012495;28;1389;-66
2021/04/09 10:05:41;;;;;;;;;;;20.10;56.20;;;;;;5028615;28;1886;-68
2021/04/09 10:08:07;;;;;;;;;;;20.10;56.20;;;;;;5043064;28;1256;-69
2021/04/09 10:10:39;;;;;;;;;;;20.10;56.20;;;;;;5046071;28;1324;-68
2021/04/09 10:13:14;;;;;;;;;;;20.10;56.20;;;;;;5020837;28;1161;-69
2021/04/09 10:15:39;;;;;;;;;;;20.10;56.20;;;;;;5045241;28;1275;-67
2021/04/09 10:18:05;;;;;;;;;;;20.10;56.20;;;;;;5045983;28;1299;-68
2021/04/09 10:20:30;;;;;;;;;;;20.10;56.20;;;;;;5047906;28;1219;-67
2021/04/09 10:22:56;;;;;;;;;;;20.10;56.20;;;;;;5047362;28;1181;-69
2021/04/09 10:25:31;;;;;;;;;;;20.10;56.20;;;;;;5031933;28;1951;-68
2021/04/09 10:27:56;;;;;;;;;;;20.10;56.20;;;;;;5045397;28;1315;-67
2021/04/09 10:30:31;;;;;;;;;;;20.10;56.20;;;;;;5051198;28;1370;-67
2021/04/09 10:32:57;;;;;;;;;;;20.00;56.20;;;;;;5045708;28;2085;-67
2021/04/09 10:35:26;;;;;;;;;;;20.00;56.20;;;;;;5051910;28;1049;-67
2021/04/09 10:38:05;;;;;;;;;;;20.00;56.20;;;;;;5051242;28;1374;-67
2021/04/09 10:40:31;;;;;;;;;;;20.00;56.20;;;;;;5033778;28;1128;-68
2021/04/09 10:42:59;;;;;;;;;;;20.00;56.20;;;;;;5051464;28;1111;-66
2021/04/09 10:45:25;;;;;;;;;;;20.00;56.20;;;;;;5051902;28;1906;-69
2021/04/09 10:47:52;;;;;;;;;;;20.00;56.30;;;;;;5050877;28;1343;-67
2021/04/09 10:50:17;;;;;;;;;;;20.00;56.30;;;;;;5051836;28;1304;-68
2021/04/09 10:52:42;;;;;;;;;;;20.00;56.30;;;;;;5051503;28;1311;-68
2021/04/09 10:55:08;;;;;;;;;;;20.00;56.30;;;;;;5051442;28;1256;-66
2021/04/09 10:57:34;;;;;;;;;;;20.00;56.30;;;;;;5051189;28;1406;-67
2021/04/09 11:00:01;;;;;;;;;;;20.00;56.30;;;;;;5051443;28;1301;-67
2021/04/09 11:02:27;;;;;;;;;;;20.00;56.30;;;;;;5051185;28;1284;-67
2021/04/09 11:04:53;;;;;;;;;;;20.00;56.30;;;;;;5051520;28;1907;-67
2021/04/09 11:07:19;;;;;;;;;;;20.00;56.30;;;;;;5033326;28;1334;-68
2021/04/09 11:09:47;;;;;;;;;;;20.00;56.30;;;;;;5051574;28;1259;-67
2021/04/09 11:12:15;;;;;;;;;;;20.00;56.30;;;;;;5033528;28;1407;-67
2021/04/09 11:14:41;;;;;;;;;;;20.00;56.30;;;;;;5051536;28;1084;-67
2021/04/09 11:17:06;;;;;;;;;;;20.00;56.30;;;;;;5050888;28;1325;-67
2021/04/09 11:19:32;;;;;;;;;;;20.00;56.30;;;;;;5033463;28;1425;-67
2021/04/09 11:21:58;;;;;;;;;;;20.00;56.30;;;;;;5033208;28;1049;-66
2021/04/09 11:24:29;;;;;;;;;;;20.00;56.30;;;;;;5051082;28;1028;-67
2021/04/09 11:26:55;;;;;;;;;;;20.00;56.30;;;;;;5033176;28;1965;-66
2021/04/09 11:29:24;;;;;;;;;;;20.00;56.30;;;;;;5033127;28;1269;-67
2021/04/09 11:31:50;;;;;;;;;;;20.00;56.20;;;;;;5051207;28;1270;-66
2021/04/09 11:34:16;;;;;;;;;;;20.00;56.30;;;;;;5046793;28;1823;-66
2021/04/09 11:36:44;;;;;;;;;;;20.00;56.20;;;;;;5053246;28;1289;-66
2021/04/09 11:39:11;;;;;;;;;;;20.00;56.30;;;;;;5040446;28;1095;-66
2021/04/09 11:41:37;;;;;;;;;;;20.00;56.20;;;;;;5054967;28;1096;-65
2021/04/09 11:44:21;;;;;;;;;;;20.00;56.20;;;;;;5037321;28;1243;-66
2021/04/09 11:46:46;;;;;;;;;;;20.00;56.30;;;;;;5054686;28;1898;-66
2021/04/09 11:49:12;;;;;;;;;;;20.00;56.30;;;;;;5054732;28;1337;-67
2021/04/09 11:51:37;;;;;;;;;;;20.00;56.30;;;;;;5054787;28;1150;-67
2021/04/09 11:54:03;;;;;;;;;;;20.00;56.30;;;;;;5054912;28;1259;-66
2021/04/09 11:56:38;;;;;;;;;;;20.00;56.30;;;;;;5054514;28;1363;-66
2021/04/09 11:59:13;;;;;;;;;;;20.00;56.30;;;;;;5036408;28;1261;-67
2021/04/09 12:01:39;;;;;;;;;;;20.00;56.30;;;;;;5036471;28;1411;-66
2021/04/09 12:04:05;;;;;;;;;;;20.00;56.30;;;;;;5036951;28;1347;-66
2021/04/09 12:06:37;;;;;;;;;;;20.00;56.30;;;;;;5036486;28;1964;-67
2021/04/09 12:09:05;;;;;;;;;;;20.00;56.30;;;;;;5036511;28;1289;-66
2021/04/09 12:11:31;;;;;;;;;;;20.00;56.30;;;;;;5036476;28;1076;-66
2021/04/09 12:13:57;;;;;;;;;;;20.00;56.30;;;;;;5036477;28;1100;-68
2021/04/09 12:16:22;;;;;;;;;;;20.00;56.30;;;;;;5054002;28;1698;-69
2021/04/09 12:18:47;;;;;;;;;;;20.00;56.30;;;;;;5054017;28;1197;-65
2021/04/09 12:21:13;;;;;;;;;;;20.00;56.30;;;;;;5054274;28;1245;-67
2021/04/09 12:23:38;;;;;;;;;;;20.00;56.30;;;;;;5054529;28;1321;-69
2021/04/09 12:26:04;;;;;;;;;;;20.00;56.30;;;;;;5053856;28;1971;-66
2021/04/09 12:28:29;;;;;;;;;;;20.00;56.30;;;;;;5054384;28;1036;-66
2021/04/09 12:30:54;;;;;;;;;;;20.00;56.20;;;;;;5053993;28;1306;-70
2021/04/09 12:33:20;;;;;;;;;;;20.00;56.20;;;;;;5053870;28;962;-67
2021/04/09 12:35:45;;;;;;;;;;;20.10;56.10;;;;;;5036291;28;1306;-67
2021/04/09 12:38:11;;;;;;;;;;;20.10;56.00;;;;;;5053381;28;1196;-67
2021/04/09 12:40:36;;;;;;;;;;;20.20;55.90;;;;;;5054079;28;1283;-70
2021/04/09 12:43:02;;;;;;;;;;;20.30;55.80;;;;;;5053925;28;1261;-70
2021/04/09 12:45:27;;;;;;;;;;;20.30;55.60;;;;;;5053325;28;1905;-69
2021/04/09 12:47:52;;;;;;;;;;;20.40;55.50;;;;;;5052191;28;1677;-70
2021/04/09 12:50:18;;;;;;;;;;;20.50;55.30;;;;;;5053816;28;1261;-70
2021/04/09 12:52:43;;;;;;;;;;;20.50;55.10;;;;;;5053873;28;1053;-69
2021/04/09 12:55:09;;;;;;;;;;;20.60;55.00;;;;;;5053040;28;1335;-70
2021/04/09 12:57:35;;;;;;;;;;;20.70;54.90;;;;;;5053129;28;1390;-70
2021/04/09 13:00:00;;;;;;;;;;;20.70;54.80;;;;;;5035519;28;1069;-70
2021/04/09 13:02:25;;;;;;;;;;;20.70;54.60;;;;;;5053591;28;1410;-70
2021/04/09 13:04:51;;;;;;;;;;;20.80;54.60;;;;;;5035854;28;1894;-69
2021/04/09 13:07:16;;;;;;;;;;;20.80;54.50;;;;;;5052660;28;1254;-69
2021/04/09 13:09:42;;;;;;;;;;;20.80;54.40;;;;;;5053909;28;1472;-71
2021/04/09 13:12:07;;;;;;;;;;;20.90;54.40;;;;;;5053206;28;1276;-69
2021/04/09 13:14:33;;;;;;;;;;;20.90;54.30;;;;;;5049241;28;2168;-69
2021/04/09 13:16:58;;;;;;;;;;;20.90;54.20;;;;;;5052748;28;1345;-69
2021/04/09 13:19:24;;;;;;;;;;;20.90;54.20;;;;;;5051387;28;1889;-66
2021/04/09 13:21:49;;;;;;;;;;;21.00;54.20;;;;;;5028153;28;1881;-67
2021/04/09 13:24:14;;;;;;;;;;;21.00;54.10;;;;;;5045195;28;2242;-69
2021/04/09 13:26:40;;;;;;;;;;;21.00;54.10;;;;;;5048424;28;1983;-68
2021/04/09 13:29:05;;;;;;;;;;;21.00;54.00;;;;;;5050683;28;1078;-67
2021/04/09 13:31:31;;;;;;;;;;;21.10;54.10;;;;;;5015631;28;1754;-68
2021/04/09 13:33:56;;;;;;;;;;;21.10;54.00;;;;;;5042759;28;1156;-66
2021/04/09 13:36:22;;;;;;;;;;;21.10;54.00;;;;;;5047109;28;1543;-66
2021/04/09 13:38:47;;;;;;;;;;;21.10;54.00;;;;;;5045441;28;1244;-68
2021/04/09 13:41:13;;;;;;;;;;;21.10;54.00;;;;;;5036484;28;1235;-67
2021/04/09 13:43:38;;;;;;;;;;;21.10;54.00;;;;;;5047212;28;1216;-67
2021/04/09 13:46:04;;;;;;;;;;;21.10;54.00;;;;;;5046518;28;1957;-67
2021/04/09 13:48:29;;;;;;;;;;;21.10;53.90;;;;;;5043621;28;1259;-67
2021/04/09 13:50:55;;;;;;;;;;;21.10;53.90;;;;;;5030354;28;1740;-67
2021/04/09 13:53:21;;;;;;;;;;;21.10;54.00;;;;;;5051724;28;1220;-67
2021/04/09 13:55:47;;;;;;;;;;;21.10;54.00;;;;;;5029704;28;1189;-67
2021/04/09 13:58:13;;;;;;;;;;;21.10;54.00;;;;;;5039373;28;1279;-67
2021/04/09 14:00:38;;;;;;;;;;;21.10;54.00;;;;;;5040566;28;1044;-68
2021/04/09 14:03:04;;;;;;;;;;;21.10;54.00;;;;;;5043315;28;1170;-67
2021/04/09 14:05:29;;;;;;;;;;;21.10;54.00;;;;;;5028146;28;1948;-68
2021/04/09 14:07:55;;;;;;;;;;;21.10;54.00;;;;;;5028036;28;1929;-67
2021/04/09 14:10:21;;;;;;;;;;;21.10;54.00;;;;;;5045540;28;1547;-67
2021/04/09 14:12:46;;;;;;;;;;;21.10;54.10;;;;;;5046287;28;1481;-68
2021/04/09 14:15:12;;;;;;;;;;;21.10;54.10;;;;;;5050614;28;1434;-66
2021/04/09 14:17:38;;;;;;;;;;;21.10;54.20;;;;;;5028337;28;1596;-65
2021/04/09 14:20:04;;;;;;;;;;;21.10;54.10;;;;;;5047826;28;1509;-65
2021/04/09 14:22:30;;;;;;;;;;;21.10;54.10;;;;;;5044896;28;1313;-67
2021/04/09 14:24:57;;;;;;;;;;;21.10;54.10;;;;;;5042528;28;1965;-67
2021/04/09 14:27:26;;;;;;;;;;;21.10;54.20;;;;;;5055818;23;3713;-67
2021/04/09 14:29:52;;;;;;;;;;;21.10;54.20;;;;;;5074264;28;1740;-69